• Join FlightAware (Why Join?)
  • Login
  • US Flag 
06:30PM EDT


 

Airport Tracker/Info


-or-


 

Live Flight TrackerFlight Track Log ✈ N1271Z ✈ 10-May-2013 ✈ KAKR - KBAK

Flight Track Log - Related Links

Times and Time Zones

All times are in EDT time to prevent confusion due to time zone crossing. See the N1271Z flight status page for this flight to view local times or setup timezone preferences in your user account.

Time Position Orientation Groundspeed Altitude Reporting Facility
EDT Latitude Longitude Course Direction KTS MPH feet Rate Location/Type
10:15AM 40.9844 -81.7412 261° West  Level FlightAware Approximate
10:16AM 40.9833 -81.7882 270° West  Level FlightAware Approximate
10:17AM 40.9686 -81.8294 236° Southwest  Level FlightAware Approximate
10:18AM 40.9667 -81.8757 270° West  Level FlightAware Approximate
10:19AM 40.9658 -81.9227 259° West  Level FlightAware Approximate
10:20AM 40.9592 -81.9689 259° West  Level FlightAware Approximate
10:21AM 40.9526 -82.0152 259° West  Level FlightAware Approximate
10:22AM 40.9460 -82.0614 259° West  Level FlightAware Approximate
10:23AM 40.9394 -82.1077 259° West  Level FlightAware Approximate
10:24AM 40.9327 -82.1539 259° West  Level FlightAware Approximate
10:25AM 40.9257 -82.2000 259° West  Level FlightAware Approximate
10:26AM 40.9187 -82.2461 259° West  Level FlightAware Approximate
10:27AM 40.9117 -82.2923 259° West  Level FlightAware Approximate
10:28AM 40.9046 -82.3384 259° West  Level FlightAware Approximate
10:29AM 40.8975 -82.3845 259° West  Level FlightAware Approximate
10:30AM 40.8904 -82.4305 258° West  Level FlightAware Approximate
10:31AM 40.8833 -82.4766 258° West  Level FlightAware Approximate
10:32AM 40.8761 -82.5227 258° West  Level FlightAware Approximate
10:33AM 40.8689 -82.5687 258° West  Level FlightAware Approximate
10:34AM 40.8538 -82.6105 238° Southwest  Level FlightAware Approximate
10:35AM 40.8350 -82.6503 238° Southwest  Level FlightAware Approximate
10:36AM 40.8161 -82.6902 238° Southwest  Level FlightAware Approximate
10:37AM 40.7972 -82.7300 238° Southwest  Level FlightAware Approximate
10:38AM 40.7784 -82.7697 238° Southwest  Level FlightAware Approximate
10:38AM 40.8700 -82.5972 238° Southwest 128 147 8,100  Level Indianapolis Center
10:39AM 40.7595 -82.8095 238° Southwest  Level FlightAware Approximate
10:39AM 40.8506 -82.6333 235° Southwest 120 138 8,100  Level Indianapolis Center
10:40AM 40.7405 -82.8492 238° Southwest  Level FlightAware Approximate
10:40AM 40.8331 -82.6722 239° Southwest 120 138 8,100  Level Indianapolis Center
10:41AM 40.7216 -82.8889 238° Southwest  Level FlightAware Approximate
10:41AM 40.8114 -82.7161 237° Southwest 121 139 8,100  Level Indianapolis Center
10:42AM 40.7027 -82.9286 238° Southwest  Level FlightAware Approximate
10:42AM 40.7933 -82.7542 238° Southwest 122 140 8,100  Level Indianapolis Center
10:43AM 40.6837 -82.9683 238° Southwest  Level FlightAware Approximate
10:43AM 40.7756 -82.7933 239° Southwest 122 140 8,100  Level Indianapolis Center
10:44AM 40.7572 -82.8308 237° Southwest 121 139 8,100  Level Indianapolis Center
10:45AM 40.7386 -82.8692 237° Southwest 122 140 8,100  Level Indianapolis Center
10:46AM 40.7200 -82.9078 238° Southwest 124 143 8,100  Level Indianapolis Center
10:47AM 40.7008 -82.9461 237° Southwest 124 143 8,100  Level Indianapolis Center
10:48AM 40.6828 -82.9856 239° Southwest 124 143 8,100  Level Indianapolis Center
10:49AM 40.6614 -83.0322 239° Southwest 125 144 8,100  Level Indianapolis Center
10:50AM 40.6422 -83.0700 236° Southwest 125 144 8,100  Level Indianapolis Center
10:51AM 40.6225 -83.1089 236° Southwest 127 146 8,100  Level Indianapolis Center
10:52AM 40.6039 -83.1494 239° Southwest 128 147 8,100 -60 Level Indianapolis Center
10:53AM 40.5856 -83.1861 237° Southwest 127 146 8,000 -60 Descending Indianapolis Center
10:54AM 40.5642 -83.2322 239° Southwest 126 145 8,000  Level Indianapolis Center
10:55AM 40.5439 -83.2711 236° Southwest 127 146 8,000  Level Indianapolis Center
10:56AM 40.5247 -83.3100 237° Southwest 126 145 8,000  Level Indianapolis Center
10:57AM 40.5064 -83.3492 238° Southwest 125 144 8,100  Climbing Indianapolis Center
10:58AM 40.4867 -83.3883 237° Southwest 126 145 8,100  Level Indianapolis Center
10:59AM 40.4714 -83.4217 239° Southwest 125 144 8,100  Level Indianapolis Center
11:00AM 40.4672 -83.4275 227° Southwest 127 146 8,100  Level Indianapolis Center
11:00AM 40.4522 -83.4578 237° Southwest 129 148 8,100  Level Indianapolis Center
11:01AM 40.4475 -83.4681 239° Southwest 129 148 8,100  Level Indianapolis Center
11:01AM 40.4350 -83.4914 235° Southwest 127 146 8,100  Level Indianapolis Center
11:02AM 40.4281 -83.5075 240° Southwest 129 148 8,100  Level Indianapolis Center
11:02AM 40.4128 -83.5406 239° Southwest 128 147 8,100  Level Indianapolis Center
11:03AM 40.4058 -83.5533 234° Southwest 127 146 8,100  Level Indianapolis Center
11:03AM 40.3931 -83.5792 237° Southwest 128 147 8,100  Level Indianapolis Center
11:04AM 40.3864 -83.5933 238° Southwest 128 147 8,100  Level Indianapolis Center
11:04AM 40.3711 -83.6231 236° Southwest 129 148 8,100  Level Indianapolis Center
11:05AM 40.3658 -83.6333 236° Southwest 131 151 8,100  Level Indianapolis Center
11:06AM 40.3472 -83.6725 238° Southwest 127 146 8,100  Level Indianapolis Center
11:06AM 40.3364 -83.6953 238° Southwest 128 147 8,100  Level Indianapolis Center
11:07AM 40.3281 -83.7119 237° Southwest 127 146 8,100  Level Indianapolis Center
11:08AM 40.3069 -83.7544 237° Southwest 128 147 8,100  Level Indianapolis Center
11:08AM 40.2922 -83.7828 236° Southwest 127 146 8,100  Level Indianapolis Center
11:09AM 40.2883 -83.7911 239° Southwest 128 147 8,100  Level Indianapolis Center
11:10AM 40.2703 -83.8236 234° Southwest 128 147 8,100  Level Indianapolis Center
11:10AM 40.2697 -83.8308 264° West 127 146 8,100  Level Indianapolis Center
11:11AM 40.2506 -83.8650 234° Southwest 129 148 8,100  Level Indianapolis Center
11:11AM 40.2489 -83.8708 249° West 130 150 8,100  Level Indianapolis Center
11:12AM 40.2261 -83.9161 237° Southwest 128 147 8,100  Level Indianapolis Center
11:12AM 40.2133 -83.9422 237° Southwest 130 150 8,100  Level Indianapolis Center
11:13AM 40.2064 -83.9558 236° Southwest 129 148 8,100  Level Indianapolis Center
11:14AM 40.1864 -83.9961 237° Southwest 130 150 8,100  Level Indianapolis Center
11:14AM 40.1739 -84.0189 234° Southwest 129 148 8,100  Level Indianapolis Center
11:15AM 40.1664 -84.0350 239° Southwest 129 148 8,100  Level Indianapolis Center
11:15AM 40.1539 -84.0600 237° Southwest 128 147 8,100  Level Indianapolis Center
11:16AM 40.1472 -84.0756 241° Southwest 129 148 8,100  Level Indianapolis Center
11:16AM 40.1364 -84.0958 235° Southwest 130 150 8,100  Level Indianapolis Center
11:17AM 40.1272 -84.1150 238° Southwest 129 148 8,100  Level Indianapolis Center
11:17AM 40.1164 -84.1369 237° Southwest 129 148 8,100  Level Indianapolis Center
11:18AM 40.1072 -84.1539 235° Southwest 129 148 8,100  Level Indianapolis Center
11:18AM 40.0967 -84.1753 237° Southwest 130 150 8,100  Level Indianapolis Center
11:19AM 40.0872 -84.1939 236° Southwest 129 148 8,100  Level Indianapolis Center
11:19AM 40.0769 -84.2136 236° Southwest 129 148 8,100  Level Indianapolis Center
11:20AM 40.0639 -84.2403 237° Southwest 130 150 8,100  Level Indianapolis Center
11:21AM 40.0547 -84.2569 234° Southwest 131 151 8,100  Level Indianapolis Center
11:21AM 40.0433 -84.2808 238° Southwest 131 151 8,100  Level Indianapolis Center
11:22AM 40.0344 -84.3006 240° Southwest 133 153 8,100  Level Indianapolis Center
11:22AM 40.0236 -84.3219 237° Southwest 132 152 8,100  Level Indianapolis Center
11:23AM 40.0147 -84.3389 236° Southwest 133 153 8,100  Level Indianapolis Center
11:23AM 40.0028 -84.3619 236° Southwest 133 153 8,100  Level Indianapolis Center
11:24AM 39.9922 -84.3850 239° Southwest 136 157 8,100  Level Indianapolis Center
11:24AM 39.9819 -84.4039 235° Southwest 135 155 8,100  Level Indianapolis Center
11:25AM 39.9697 -84.4281 237° Southwest 135 155 8,100  Level Indianapolis Center
11:25AM 39.9611 -84.4447 236° Southwest 135 155 8,100  Level Indianapolis Center
11:26AM 39.9497 -84.4689 238° Southwest 135 155 8,100  Level Indianapolis Center
11:27AM 39.9272 -84.5150 238° Southwest 138 159 8,100  Level Indianapolis Center
11:27AM 39.9181 -84.5289 229° Southwest 138 159 8,100  Level Indianapolis Center
11:28AM 39.9075 -84.5503 237° Southwest 137 158 8,100  Level Indianapolis Center
11:28AM 39.8978 -84.5694 237° Southwest 135 155 8,100  Level Indianapolis Center
11:29AM 39.8825 -84.5986 236° Southwest 135 155 8,100  Level Indianapolis Center
11:29AM 39.8733 -84.6172 237° Southwest 135 155 8,100  Level Indianapolis Center
11:30AM 39.8625 -84.6394 238° Southwest 137 158 8,100  Level Indianapolis Center
11:30AM 39.8517 -84.6597 235° Southwest 138 159 8,100  Level Indianapolis Center
11:31AM 39.8375 -84.6875 236° Southwest 140 161 8,100  Level Indianapolis Center
11:31AM 39.8308 -84.7019 239° Southwest 138 159 8,100  Level Indianapolis Center
11:32AM 39.8169 -84.7308 238° Southwest 139 160 8,100  Level Indianapolis Center
11:32AM 39.8086 -84.7444 231° Southwest 140 161 8,100  Level Indianapolis Center
11:33AM 39.7997 -84.7611 235° Southwest 140 161 8,100  Level Indianapolis Center
11:33AM 39.7878 -84.7867 239° Southwest 138 159 8,100  Level Indianapolis Center
11:34AM 39.7775 -84.8042 233° Southwest 139 160 8,100  Level Indianapolis Center
11:35AM 39.7658 -84.8289 238° Southwest 139 160 8,100  Level Indianapolis Center
11:35AM 39.7547 -84.8500 236° Southwest 139 160 8,100  Level Indianapolis Center
11:36AM 39.7444 -84.8719 239° Southwest 140 161 8,100  Level Indianapolis Center
11:37AM 39.7228 -84.9186 239° Southwest 139 160 8,100  Level Indianapolis Center
11:38AM 39.7042 -84.9614 241° Southwest 137 158 8,100  Level Indianapolis Center
11:39AM 39.6853 -85.0033 240° Southwest 136 157 8,100  Level Indianapolis Center
11:40AM 39.6661 -85.0456 239° Southwest 137 158 8,100  Level Indianapolis Center
11:41AM 39.6453 -85.0889 238° Southwest 140 161 8,100  Level Indianapolis Center
11:42AM 39.6372 -85.1381 258° West 142 163 8,100 -240 Level Indianapolis Center
11:43AM 39.6350 -85.2028 267° West 148 170 7,700 -540 Descending Indianapolis Center
11:44AM 39.6322 -85.2603 266° West 157 181 7,100 -540 Descending Indianapolis Center
11:45AM 39.6264 -85.3175 262° West 159 183 6,600 -600 Descending Indianapolis Center
11:46AM 39.6219 -85.3739 264° West 159 183 5,900 -720 Descending Indianapolis Center
11:47AM 39.6136 -85.4283 259° West 155 178 5,200 -660 Descending Indianapolis Center
11:48AM 39.5889 -85.4725 234° Southwest 152 175 4,600 -660 Descending Indianapolis Center
11:49AM 39.5572 -85.5097 222° Southwest 153 176 3,900 -720 Descending Indianapolis Center
11:50AM 39.5225 -85.5558 226° Southwest 152 175 3,200 -480 Descending Indianapolis Center
11:51AM 39.4961 -85.5928 227° Southwest 147 169 3,000 -120 Descending Indianapolis Center
11:52AM 39.4750 -85.6239 229° Southwest 135 155 3,000 -60 Level Indianapolis Center
11:53AM 39.4517 -85.6506 221° Southwest 122 140 2,900  Descending Indianapolis Center
11:54AM 39.4281 -85.6792 223° Southwest 118 136 3,100  Climbing Indianapolis Center
11:55AM 39.4047 -85.7097 225° Southwest 118 136 3,000  Descending Indianapolis Center
11:56AM 39.3825 -85.7389 225° Southwest 117 135 3,100  Climbing Indianapolis Center
11:57AM 39.3606 -85.7678 226° Southwest 115 132 3,100 -240 Level Indianapolis Center
11:58AM 39.3381 -85.7972 225° Southwest 107 123 2,700 -480 Descending Indianapolis Center
11:59AM 39.3208 -85.8186 224° Southwest 97 112 2,200 -540 Descending Indianapolis Center
12:00PM 39.3058 -85.8406 229° Southwest 89 102 1,700 -360 Descending Indianapolis Center
12:01PM 39.2917 -85.8597 226° Southwest 87 100 1,500 -240 Descending Indianapolis Center
12:03PM 39.2833 -85.8833 245° Southwest 85 98 1,100 -240 Descending Indianapolis TRACON